createdAt,value
2022-08-26T00:00:26.601Z,4.30
2022-08-26T00:04:03.867Z,3.90
2022-08-26T00:07:58.701Z,4.10
2022-08-26T00:11:26.934Z,3.70
2022-08-26T00:14:57.510Z,3.40
2022-08-26T00:18:38.832Z,3.90
2022-08-26T00:22:30.576Z,2.70
2022-08-26T00:25:53.252Z,3.50
2022-08-26T00:29:29.099Z,3.60
2022-08-26T00:33:06.322Z,4.10
2022-08-26T00:36:43.522Z,3.60
2022-08-26T00:40:24.541Z,3.80
2022-08-26T00:44:14.837Z,3.30
2022-08-26T00:47:49.648Z,3.20
2022-08-26T00:51:23.273Z,3.50
2022-08-26T00:55:20.230Z,4.20
2022-08-26T00:59:06.030Z,3.70
2022-08-26T01:02:28.887Z,4.00
2022-08-26T01:06:24.410Z,4.00
2022-08-26T01:09:48.330Z,2.90
2022-08-26T01:13:25.455Z,3.40
2022-08-26T01:17:03.676Z,3.80
2022-08-26T01:21:11.582Z,3.20
2022-08-26T01:24:53.749Z,3.80
2022-08-26T01:28:23.139Z,3.60
2022-08-26T01:32:15.465Z,3.90
2022-08-26T01:35:37.991Z,3.60
2022-08-26T01:39:13.598Z,3.00
2022-08-26T01:43:16.491Z,3.50
2022-08-26T01:46:38.043Z,3.40
2022-08-26T01:50:27.856Z,3.30
2022-08-26T01:53:52.546Z,4.10
2022-08-26T01:57:51.618Z,3.70
2022-08-26T02:01:19.782Z,4.40
2022-08-26T02:05:02.296Z,3.60
2022-08-26T02:08:41.940Z,4.00
2022-08-26T02:12:10.853Z,4.20
2022-08-26T02:16:05.300Z,4.10
2022-08-26T02:19:33.489Z,4.00
2022-08-26T02:23:07.765Z,3.60
2022-08-26T02:26:45.830Z,3.20
2022-08-26T02:30:26.095Z,3.20
2022-08-26T02:34:21.490Z,3.90
2022-08-26T02:37:43.906Z,3.70
2022-08-26T02:41:44.946Z,4.00
2022-08-26T02:45:27.476Z,4.10
2022-08-26T02:49:09.640Z,3.50
2022-08-26T02:52:30.817Z,4.40
2022-08-26T02:56:08.842Z,4.40
2022-08-26T02:59:44.740Z,3.70
2022-08-26T03:03:23.558Z,3.60
2022-08-26T03:06:58.469Z,4.20
2022-08-26T03:10:34.969Z,4.30
2022-08-26T03:14:11.907Z,4.50
2022-08-26T03:17:50.388Z,4.10
2022-08-26T03:21:44.354Z,4.20
2022-08-26T03:25:12.040Z,3.40
2022-08-26T03:29:04.245Z,3.20
2022-08-26T03:32:26.926Z,3.70
2022-08-26T03:36:04.122Z,4.40
2022-08-26T03:39:39.766Z,4.10
2022-08-26T03:43:17.246Z,4.60
2022-08-26T03:46:54.989Z,4.20
2022-08-26T03:50:31.148Z,3.80
2022-08-26T03:54:08.194Z,3.20
2022-08-26T03:57:44.111Z,3.60
2022-08-26T04:01:21.529Z,3.70
2022-08-26T04:04:57.551Z,4.60
2022-08-26T04:08:34.485Z,4.70
2022-08-26T04:12:11.075Z,4.10
2022-08-26T04:15:47.928Z,5.30
2022-08-26T04:19:25.726Z,5.00
2022-08-26T04:23:01.695Z,5.30
2022-08-26T04:26:39.542Z,5.60
2022-08-26T04:30:16.685Z,5.00
2022-08-26T04:33:52.326Z,3.90
2022-08-26T04:37:28.587Z,3.10
2022-08-26T04:41:24.513Z,2.70
2022-08-26T04:44:46.457Z,2.70
2022-08-26T04:48:23.186Z,2.80
2022-08-26T04:52:00.522Z,3.20
2022-08-26T04:55:38.667Z,3.20
2022-08-26T04:59:16.624Z,3.20
2022-08-26T05:02:51.571Z,3.00
2022-08-26T05:06:28.232Z,2.90
2022-08-26T05:10:05.122Z,3.50
2022-08-26T05:13:41.991Z,3.90
2022-08-26T05:17:37.668Z,3.10
2022-08-26T05:21:02.351Z,2.80
2022-08-26T05:24:36.717Z,2.50
2022-08-26T05:28:16.982Z,2.30
2022-08-26T05:31:52.439Z,3.00
2022-08-26T05:35:31.973Z,3.00
2022-08-26T05:39:06.408Z,2.60
2022-08-26T05:42:40.628Z,2.80
2022-08-26T05:46:18.155Z,2.30
2022-08-26T05:49:55.443Z,2.70
2022-08-26T05:53:32.580Z,2.60
2022-08-26T05:57:07.900Z,2.70
2022-08-26T06:00:45.224Z,2.90
2022-08-26T06:04:40.424Z,2.60
2022-08-26T06:08:11.255Z,2.50
2022-08-26T06:11:40.234Z,2.90
2022-08-26T06:15:16.549Z,2.60
2022-08-26T06:18:54.124Z,2.50
2022-08-26T06:22:48.023Z,2.10
2022-08-26T06:26:12.228Z,2.60
2022-08-26T06:30:09.311Z,3.00
2022-08-26T06:33:32.503Z,2.90
2022-08-26T06:37:08.897Z,2.60
2022-08-26T06:40:48.703Z,2.30
2022-08-26T06:44:21.419Z,2.90
2022-08-26T06:47:58.782Z,3.20
2022-08-26T06:51:37.191Z,2.60
2022-08-26T06:55:14.727Z,3.10
2022-08-26T06:58:48.726Z,3.10
2022-08-26T07:02:25.157Z,3.50
2022-08-26T07:06:03.348Z,2.50
2022-08-26T07:09:38.951Z,2.50
2022-08-26T07:13:15.579Z,2.70
2022-08-26T07:17:14.208Z,3.20
2022-08-26T07:20:40.309Z,2.50
2022-08-26T07:24:13.584Z,2.80
2022-08-26T07:27:54.278Z,3.30
2022-08-26T07:31:47.074Z,3.10
2022-08-26T07:35:10.487Z,2.60
2022-08-26T07:38:48.395Z,3.00
2022-08-26T07:42:24.600Z,2.60
2022-08-26T07:46:27.115Z,2.90
2022-08-26T07:49:53.583Z,3.10
2022-08-26T07:53:29.082Z,2.60
2022-08-26T07:57:09.363Z,2.80
2022-08-26T08:00:43.048Z,2.80
2022-08-26T08:04:26.190Z,2.40
2022-08-26T08:08:00.848Z,2.60
2022-08-26T08:11:58.021Z,2.50
2022-08-26T08:15:25.298Z,2.80
2022-08-26T08:19:00.290Z,3.20
2022-08-26T08:22:54.249Z,2.40
2022-08-26T08:26:17.677Z,2.20
2022-08-26T08:29:55.005Z,1.60
2022-08-26T08:33:31.333Z,2.60
2022-08-26T08:37:25.822Z,1.90
2022-08-26T08:40:48.260Z,2.20
2022-08-26T08:48:27.767Z,2.20
2022-08-26T08:52:04.954Z,2.60
2022-08-26T08:55:42.616Z,2.20
2022-08-26T08:59:18.132Z,2.30
2022-08-26T09:03:01.788Z,2.00
2022-08-26T09:06:46.577Z,2.90
2022-08-26T09:10:43.955Z,2.40
2022-08-26T09:14:27.265Z,2.10
2022-08-26T09:18:14.493Z,1.90
2022-08-26T09:21:38.032Z,2.30
2022-08-26T09:25:15.673Z,2.50
2022-08-26T09:29:31.473Z,2.20
2022-08-26T09:33:10.922Z,2.10
2022-08-26T09:36:41.438Z,3.40
2022-08-26T09:40:35.491Z,2.30
2022-08-26T09:44:19.284Z,2.00
2022-08-26T09:48:03.399Z,1.70
2022-08-26T09:51:32.034Z,2.10
2022-08-26T09:55:14.012Z,2.00
2022-08-26T09:58:45.231Z,2.20
2022-08-26T10:02:32.527Z,2.10
2022-08-26T10:06:00.526Z,2.00
2022-08-26T10:09:39.406Z,2.30
2022-08-26T10:13:33.407Z,1.90
2022-08-26T10:17:07.605Z,2.20
2022-08-26T10:20:41.701Z,2.50
2022-08-26T10:24:17.380Z,1.70
2022-08-26T10:28:11.159Z,1.70
2022-08-26T10:31:52.015Z,2.50
2022-08-26T10:35:16.971Z,2.00
2022-08-26T10:38:51.035Z,1.60
2022-08-26T10:42:35.487Z,2.20
2022-08-26T10:46:10.216Z,1.80
2022-08-26T10:49:43.003Z,1.80
2022-08-26T10:53:42.523Z,1.80
2022-08-26T10:57:21.663Z,1.50
2022-08-26T11:01:11.556Z,1.60
2022-08-26T11:04:50.786Z,1.80
2022-08-26T11:08:19.507Z,1.70
2022-08-26T11:11:50.781Z,2.00
2022-08-26T11:15:28.163Z,1.60
2022-08-26T11:19:04.223Z,1.80
2022-08-26T11:22:47.930Z,1.90
2022-08-26T11:26:18.874Z,1.80
2022-08-26T11:30:20.754Z,1.30
2022-08-26T11:33:52.134Z,1.90
2022-08-26T11:37:29.325Z,1.50
2022-08-26T11:41:08.946Z,1.30
2022-08-26T11:44:39.864Z,1.70
2022-08-26T11:48:19.729Z,1.10
2022-08-26T11:51:51.852Z,1.40
2022-08-26T11:55:28.694Z,1.40
2022-08-26T11:59:15.544Z,1.30
2022-08-26T12:02:41.265Z,1.30
2022-08-26T12:06:17.559Z,1.50
2022-08-26T12:10:02.129Z,1.20
2022-08-26T12:13:31.370Z,1.20
2022-08-26T12:17:14.024Z,1.90
2022-08-26T12:21:21.546Z,1.20
2022-08-26T12:24:49.355Z,1.40
2022-08-26T12:28:23.108Z,1.30
2022-08-26T12:32:09.644Z,1.30
2022-08-26T12:35:36.640Z,1.30
2022-08-26T12:39:35.923Z,6.80
2022-08-26T12:43:00.527Z,1.50
2022-08-26T12:46:36.755Z,2.10
2022-08-26T13:01:08.739Z,1.70
2022-08-26T13:12:03.479Z,1.60
2022-08-26T13:15:40.053Z,1.40
2022-08-26T13:26:30.985Z,2.10
2022-08-26T14:06:39.623Z,1.60
2022-08-26T14:10:13.547Z,1.70
2022-08-26T14:13:49.353Z,1.40
2022-08-26T14:17:27.427Z,1.90
2022-08-26T14:21:07.154Z,1.70
2022-08-26T14:24:39.107Z,1.90
2022-08-26T14:28:15.818Z,1.90
2022-08-26T14:32:18.892Z,1.80
2022-08-26T14:35:47.971Z,1.70
2022-08-26T14:39:20.229Z,1.70
2022-08-26T14:42:59.242Z,2.00
2022-08-26T14:46:41.795Z,2.20
2022-08-26T14:50:11.958Z,2.00
2022-08-26T14:54:07.003Z,1.70
2022-08-26T14:57:29.497Z,1.60
2022-08-26T15:01:07.683Z,2.10
2022-08-26T15:04:43.099Z,2.00
2022-08-26T15:08:39.508Z,1.80
2022-08-26T15:12:02.517Z,2.00
2022-08-26T15:15:57.350Z,2.20
2022-08-26T15:19:20.880Z,1.90
2022-08-26T15:22:57.546Z,2.00
2022-08-26T15:26:33.433Z,1.90
2022-08-26T15:30:11.532Z,1.90
2022-08-26T15:34:07.641Z,2.10
2022-08-26T15:37:29.587Z,2.30
2022-08-26T15:41:26.081Z,2.10
2022-08-26T15:44:48.352Z,2.30
2022-08-26T15:48:43.994Z,2.50
2022-08-26T15:52:06.123Z,1.80
2022-08-26T16:06:39.507Z,2.20
2022-08-26T16:10:14.669Z,1.80
2022-08-26T16:13:50.742Z,2.20
2022-08-26T16:17:27.622Z,1.70
2022-08-26T16:21:13.231Z,2.50
2022-08-26T16:24:41.413Z,1.70
2022-08-26T16:28:26.331Z,2.20
2022-08-26T16:32:13.511Z,2.20
2022-08-26T16:35:35.864Z,2.30
2022-08-26T16:39:12.299Z,2.30
2022-08-26T16:42:50.425Z,2.20
2022-08-26T16:46:45.095Z,1.90
2022-08-26T16:50:10.460Z,2.10
2022-08-26T16:53:45.762Z,2.60
2022-08-26T16:57:20.651Z,2.40
2022-08-26T17:00:57.224Z,2.30
2022-08-26T17:04:37.487Z,2.30
2022-08-26T17:08:11.105Z,2.40
2022-08-26T17:11:47.464Z,2.40
2022-08-26T17:15:53.365Z,2.80
2022-08-26T17:19:17.619Z,2.70
2022-08-26T17:22:54.525Z,2.20
2022-08-26T17:26:29.358Z,2.80
2022-08-26T17:30:06.502Z,3.20
2022-08-26T17:33:42.152Z,2.30
2022-08-26T17:37:19.029Z,2.50
2022-08-26T17:40:57.561Z,2.20
2022-08-26T17:44:32.399Z,2.70
2022-08-26T17:48:11.227Z,2.30
2022-08-26T17:51:46.508Z,2.80
2022-08-26T17:55:23.065Z,2.70
2022-08-26T17:59:18.650Z,2.70
2022-08-26T18:02:42.088Z,2.80
2022-08-26T18:06:17.113Z,2.70
2022-08-26T18:09:54.884Z,3.30
2022-08-26T18:13:30.684Z,3.00
2022-08-26T18:17:07.912Z,3.20
2022-08-26T18:20:45.603Z,2.70
2022-08-26T18:24:20.883Z,2.20
2022-08-26T18:27:57.998Z,2.80
2022-08-26T18:31:34.919Z,2.60
2022-08-26T18:35:11.854Z,2.60
2022-08-26T18:39:08.306Z,3.00
2022-08-26T18:42:30.060Z,2.60
2022-08-26T18:46:10.051Z,2.70
2022-08-26T18:49:43.398Z,2.80
2022-08-26T18:53:20.575Z,2.50
2022-08-26T18:56:56.923Z,2.90
2022-08-26T19:00:34.098Z,2.70
2022-08-26T19:04:12.880Z,2.90
2022-08-26T19:07:47.949Z,3.10
2022-08-26T19:11:32.660Z,2.90
2022-08-26T19:15:02.675Z,3.00
2022-08-26T19:18:37.857Z,3.10
2022-08-26T19:22:14.702Z,2.80
2022-08-26T19:25:53.105Z,2.60
2022-08-26T19:29:31.902Z,2.90
2022-08-26T19:33:05.599Z,3.20
2022-08-26T19:36:44.813Z,3.00
2022-08-26T19:40:18.706Z,3.30
2022-08-26T19:44:38.100Z,3.30
2022-08-26T19:48:00.026Z,3.10
2022-08-26T19:51:55.872Z,3.10
2022-08-26T19:55:18.935Z,3.10
2022-08-26T19:58:55.626Z,4.10
2022-08-26T20:02:31.544Z,3.30
2022-08-26T20:06:10.691Z,3.30
2022-08-26T20:09:46.317Z,2.80
2022-08-26T20:13:42.150Z,3.20
2022-08-26T20:17:06.268Z,3.30
2022-08-26T20:21:18.019Z,3.00
2022-08-26T20:24:39.683Z,3.50
2022-08-26T20:28:16.530Z,3.80
2022-08-26T20:31:54.778Z,3.10
2022-08-26T20:35:30.231Z,4.00
2022-08-26T20:39:08.976Z,3.30
2022-08-26T20:42:44.187Z,3.50
2022-08-26T20:46:24.706Z,3.30
2022-08-26T20:49:58.156Z,3.40
2022-08-26T20:53:53.394Z,2.90
2022-08-26T20:57:34.491Z,3.40
2022-08-26T21:00:56.799Z,3.70
2022-08-26T21:04:32.991Z,3.60
2022-08-26T21:08:10.164Z,3.20
2022-08-26T21:11:46.483Z,3.60
2022-08-26T21:15:24.065Z,3.70
2022-08-26T21:19:00.521Z,3.80
2022-08-26T21:22:39.828Z,3.50
2022-08-26T21:26:16.561Z,3.20
2022-08-26T21:29:50.621Z,3.10
2022-08-26T21:33:27.375Z,3.10
2022-08-26T21:37:13.311Z,3.60
2022-08-26T21:41:06.707Z,4.00
2022-08-26T21:44:28.387Z,3.70
2022-08-26T21:48:24.622Z,3.70
2022-08-26T21:51:55.326Z,3.20
2022-08-26T21:55:35.946Z,3.50
2022-08-26T21:59:09.401Z,3.70
2022-08-26T22:02:44.718Z,3.90
2022-08-26T22:06:24.205Z,3.80
2022-08-26T22:10:17.889Z,3.40
2022-08-26T22:13:41.756Z,3.40
2022-08-26T22:17:27.489Z,3.80
2022-08-26T22:20:55.518Z,3.20
2022-08-26T22:24:29.879Z,3.70
2022-08-26T22:28:07.397Z,3.50
2022-08-26T22:31:43.528Z,3.50
2022-08-26T22:35:29.079Z,3.30
2022-08-26T22:38:58.879Z,3.50
2022-08-26T22:42:34.472Z,3.30
2022-08-26T22:46:20.694Z,3.90
2022-08-26T22:49:47.840Z,3.10
2022-08-26T22:53:26.145Z,3.00
2022-08-26T22:57:20.373Z,2.70
2022-08-26T23:00:46.699Z,3.40
2022-08-26T23:04:19.438Z,2.90
2022-08-26T23:07:56.863Z,3.10
2022-08-26T23:11:32.804Z,3.20
2022-08-26T23:15:28.098Z,3.00
2022-08-26T23:18:50.508Z,3.50
2022-08-26T23:22:45.672Z,3.20
2022-08-26T23:26:08.249Z,3.60
2022-08-26T23:29:44.075Z,2.70
2022-08-26T23:33:21.245Z,2.80
2022-08-26T23:37:18.263Z,2.70
2022-08-26T23:40:40.714Z,3.00
2022-08-26T23:44:18.146Z,2.80
2022-08-26T23:47:56.307Z,3.00
2022-08-26T23:51:50.338Z,2.90
2022-08-26T23:55:13.458Z,3.20
2022-08-26T23:58:49.489Z,2.40
